Time;durP1;ratioP1;P1;durP2;ratioP2;P2;SDS_P1;SDS_P2;PMS_P1;PMS_P2;Temp;Humidity;BMP_temperature;BMP_pressure;BME280_temperature;BME280_humidity;BME280_pressure;Samples;Min_cycle;Max_cycle;Signal;HPM_P1;HPM_P2
2022/03/14 00:01:14;;;;;;;86.57;37.38;;;;;;;0.29;40.73;99527.25;5071416;28;20044;-64
2022/03/14 00:03:50;;;;;;;108.53;45.17;;;;;;;0.31;40.89;99522.50;5072985;28;20052;-64
2022/03/14 00:06:17;;;;;;;88.93;41.60;;;;;;;0.34;40.84;99529.34;5071538;28;20024;-64
2022/03/14 00:08:45;;;;;;;72.55;35.05;;;;;;;0.36;41.16;99521.88;5073474;28;20380;-64
2022/03/14 00:11:13;;;;;;;72.55;33.92;;;;;;;0.34;40.97;99524.78;5073019;28;20024;-64
2022/03/14 00:13:39;;;;;;;65.78;31.05;;;;;;;0.34;41.14;99534.75;5072705;28;20040;-65
2022/03/14 00:16:05;;;;;;;65.75;30.60;;;;;;;0.31;41.29;99532.44;5072711;28;20100;-64
2022/03/14 00:18:34;;;;;;;62.13;29.55;;;;;;;0.29;41.39;99538.06;5072605;28;20147;-65
2022/03/14 00:20:59;;;;;;;62.35;28.88;;;;;;;0.26;41.27;99539.28;5072422;28;20021;-65
2022/03/14 00:23:26;;;;;;;63.80;28.38;;;;;;;0.19;41.37;99535.75;5072515;28;20077;-64
2022/03/14 00:25:52;;;;;;;63.60;27.80;;;;;;;0.13;41.39;99534.66;5071904;28;20074;-64
2022/03/14 00:28:18;;;;;;;65.20;28.60;;;;;;;0.07;41.78;99537.34;5072712;28;20032;-65
2022/03/14 00:30:43;;;;;;;68.82;31.33;;;;;;;0.02;41.36;99537.94;5072227;28;20113;-64
2022/03/14 00:33:09;;;;;;;68.20;30.67;;;;;;;-0.01;41.49;99533.78;5072324;28;20020;-65
2022/03/14 00:35:34;;;;;;;65.93;28.83;;;;;;;-0.05;41.71;99539.78;5071998;28;20040;-64
2022/03/14 00:38:00;;;;;;;63.65;28.60;;;;;;;-0.12;41.61;99538.91;5072399;28;20029;-64
2022/03/14 00:40:26;;;;;;;60.88;28.05;;;;;;;-0.20;41.64;99538.03;5072164;28;20099;-64
2022/03/14 00:42:52;;;;;;;61.13;27.77;;;;;;;-0.27;41.83;99541.75;5072118;28;20107;-64
2022/03/14 00:45:21;;;;;;;61.95;27.52;;;;;;;-0.32;42.05;99543.16;5071675;28;20086;-64
2022/03/14 00:47:46;;;;;;;67.90;29.75;;;;;;;-0.28;42.23;99548.16;5071924;28;20063;-64
2022/03/14 00:50:11;;;;;;;60.22;28.30;;;;;;;-0.28;42.27;99543.59;5071784;28;20051;-65
2022/03/14 00:52:37;;;;;;;59.85;27.33;;;;;;;-0.32;42.37;99553.94;5071720;28;20027;-65
2022/03/14 00:55:03;;;;;;;58.63;27.75;;;;;;;-0.34;42.47;99547.91;5071548;28;20072;-64
2022/03/14 00:57:28;;;;;;;69.03;30.13;;;;;;;-0.32;42.90;99556.66;5072116;28;20074;-64
2022/03/14 00:59:53;;;;;;;66.90;29.73;;;;;;;-0.29;42.82;99551.88;5072105;28;20056;-65
2022/03/14 01:02:19;;;;;;;60.60;27.30;;;;;;;-0.27;42.97;99555.22;5071972;28;20440;-65
2022/03/14 01:04:44;;;;;;;57.17;26.52;;;;;;;-0.30;43.11;99556.44;5071707;28;20024;-65
2022/03/14 01:07:10;;;;;;;57.83;26.50;;;;;;;-0.31;43.20;99555.63;5074755;28;20088;-65
2022/03/14 01:09:35;;;;;;;60.53;27.67;;;;;;;-0.32;43.27;99561.19;5073054;28;20384;-64
2022/03/14 01:12:02;;;;;;;55.67;25.90;;;;;;;-0.32;43.45;99559.34;5071333;28;20415;-64
2022/03/14 01:14:28;;;;;;;59.10;27.42;;;;;;;-0.32;43.63;99550.41;5071612;28;20028;-64
2022/03/14 01:16:53;;;;;;;63.45;28.45;;;;;;;-0.32;43.61;99564.72;5070411;28;20086;-65
2022/03/14 01:19:20;;;;;;;59.33;27.23;;;;;;;-0.34;43.86;99558.69;5071116;28;20044;-64
2022/03/14 01:21:46;;;;;;;59.25;28.00;;;;;;;-0.36;43.77;99557.22;5070687;28;20730;-65
2022/03/14 01:24:11;;;;;;;59.40;28.92;;;;;;;-0.38;44.07;99562.81;5071428;28;20415;-65
2022/03/14 01:26:37;;;;;;;60.40;29.52;;;;;;;-0.40;43.84;99559.50;5070738;28;20024;-65
2022/03/14 01:29:04;;;;;;;54.42;26.98;;;;;;;-0.40;43.82;99564.03;5071406;28;20023;-65
2022/03/14 01:31:30;;;;;;;53.05;26.35;;;;;;;-0.42;44.20;99558.84;5070922;28;20020;-65
2022/03/14 01:33:55;;;;;;;53.83;26.13;;;;;;;-0.44;44.26;99565.47;5070772;28;20539;-65
2022/03/14 01:36:20;;;;;;;57.20;26.48;;;;;;;-0.48;44.44;99565.03;5070485;28;20039;-64
2022/03/14 01:38:46;;;;;;;55.38;25.80;;;;;;;-0.53;44.08;99562.09;5068729;28;20099;-65
2022/03/14 01:41:16;;;;;;;55.28;26.13;;;;;;;-0.56;44.59;99566.00;5070622;28;20025;-65
2022/03/14 01:43:42;;;;;;;54.78;27.63;;;;;;;-0.55;44.84;99569.53;5070563;28;20020;-65
2022/03/14 01:46:07;;;;;;;52.30;25.30;;;;;;;-0.56;44.53;99568.72;5070646;28;20040;-65
2022/03/14 01:48:32;;;;;;;58.22;27.27;;;;;;;-0.60;44.75;99570.13;5070742;28;20081;-65
2022/03/14 01:50:58;;;;;;;54.55;27.55;;;;;;;-0.61;45.00;99577.38;5070568;28;20023;-64
2022/03/14 01:53:24;;;;;;;57.45;27.77;;;;;;;-0.62;45.05;99578.41;5069802;28;20497;-65
2022/03/14 01:55:50;;;;;;;60.63;28.40;;;;;;;-0.63;45.56;99579.44;5070096;28;20358;-65
2022/03/14 01:58:17;;;;;;;58.97;28.10;;;;;;;-0.66;44.96;99585.22;5070425;28;20028;-65
2022/03/14 02:00:43;;;;;;;61.97;29.52;;;;;;;-0.68;45.61;99587.28;5070539;28;20099;-65
2022/03/14 02:03:09;;;;;;;56.35;26.70;;;;;;;-0.69;45.71;99585.63;5070045;28;20485;-65
2022/03/14 02:05:36;;;;;;;53.85;26.52;;;;;;;-0.73;45.76;99576.25;5069845;28;20077;-66
2022/03/14 02:08:02;;;;;;;60.63;29.02;;;;;;;-0.76;45.65;99585.53;5070236;28;20507;-65
2022/03/14 02:10:27;;;;;;;58.00;26.65;;;;;;;-0.79;45.73;99585.09;5070353;28;20025;-64
2022/03/14 02:12:53;;;;;;;54.10;26.17;;;;;;;-0.83;46.04;99575.75;5069587;28;20017;-65
2022/03/14 02:15:20;;;;;;;55.95;27.42;;;;;;;-0.83;46.31;99581.97;5069971;28;20475;-65
2022/03/14 02:17:45;;;;;;;56.75;26.13;;;;;;;-0.83;46.39;99581.13;5070266;28;20024;-65
2022/03/14 02:20:11;;;;;;;58.08;28.90;;;;;;;-0.85;46.25;99584.03;5068907;28;20070;-65
2022/03/14 02:22:36;;;;;;;58.05;27.05;;;;;;;-0.86;46.56;99585.06;5069555;28;20028;-65
2022/03/14 02:25:02;;;;;;;50.05;26.50;;;;;;;-0.86;46.79;99594.97;5070152;28;20013;-65
2022/03/14 02:27:27;;;;;;;58.53;27.45;;;;;;;-0.88;46.77;99587.09;5069654;28;20525;-65
2022/03/14 02:29:53;;;;;;;51.70;26.13;;;;;;;-0.88;47.06;99586.25;5069966;28;20028;-65
2022/03/14 02:32:18;;;;;;;55.47;27.42;;;;;;;-0.92;47.08;99591.22;5069722;28;20044;-64
2022/03/14 02:34:45;;;;;;;58.47;26.35;;;;;;;-0.91;47.24;99591.00;5070070;28;20036;-64
2022/03/14 02:37:11;;;;;;;65.97;28.90;;;;;;;-0.93;46.93;99593.06;5069109;28;20059;-64
2022/03/14 02:39:37;;;;;;;56.45;27.52;;;;;;;-0.93;47.03;99603.00;5069707;28;20060;-64
2022/03/14 02:42:03;;;;;;;57.03;26.10;;;;;;;-0.95;47.33;99597.81;5068361;28;20057;-65
2022/03/14 02:44:29;;;;;;;56.90;26.67;;;;;;;-0.95;47.40;99592.41;5069675;28;20032;-64
2022/03/14 02:46:54;;;;;;;53.17;27.40;;;;;;;-0.98;47.74;99600.06;5066848;28;20032;-65
2022/03/14 02:49:20;;;;;;;52.95;25.40;;;;;;;-1.01;47.62;99595.88;5069627;28;20059;-65
2022/03/14 02:51:46;;;;;;;56.00;25.73;;;;;;;-1.03;47.71;99600.66;5069690;28;20028;-65
2022/03/14 02:54:12;;;;;;;57.53;27.63;;;;;;;-1.07;47.43;99602.88;5069282;28;20083;-65
2022/03/14 02:56:38;;;;;;;55.90;26.55;;;;;;;-1.08;48.03;99611.16;5069313;28;20608;-64
2022/03/14 02:59:06;;;;;;;56.30;26.40;;;;;;;-1.12;47.62;99607.19;5069802;28;20025;-65
2022/03/14 03:01:32;;;;;;;54.33;26.83;;;;;;;-1.14;47.92;99611.91;5069500;28;20112;-64
2022/03/14 03:03:57;;;;;;;53.95;26.10;;;;;;;-1.15;48.07;99621.00;5069525;28;20033;-66
2022/03/14 03:06:23;;;;;;;52.60;26.48;;;;;;;-1.16;47.97;99614.78;5070158;28;20032;-64
2022/03/14 03:08:50;;;;;;;51.92;26.17;;;;;;;-1.21;48.11;99604.59;5070343;28;20043;-64
2022/03/14 03:11:15;;;;;;;48.55;26.27;;;;;;;-1.29;48.34;99607.41;5070723;28;20533;-65
2022/03/14 03:13:42;;;;;;;48.55;25.48;;;;;;;-1.32;48.55;99613.16;5069736;28;20037;-65
2022/03/14 03:16:09;;;;;;;56.38;27.00;;;;;;;-1.31;48.40;99612.16;5070374;28;20066;-64
2022/03/14 03:18:35;;;;;;;53.08;25.83;;;;;;;-1.34;48.50;99617.91;5070937;28;20031;-64
2022/03/14 03:21:01;;;;;;;59.92;27.98;;;;;;;-1.36;48.65;99618.09;5070062;28;20021;-65
2022/03/14 03:23:27;;;;;;;64.85;29.42;;;;;;;-1.35;48.90;99621.63;5069591;28;20078;-65
2022/03/14 03:25:52;;;;;;;55.33;27.73;;;;;;;-1.34;48.68;99615.22;5069983;28;20020;-65
2022/03/14 03:28:18;;;;;;;63.40;28.85;;;;;;;-1.34;48.97;99617.91;5070668;28;20032;-65
2022/03/14 03:30:43;;;;;;;58.85;28.08;;;;;;;-1.34;49.07;99625.97;5069409;28;20036;-64
2022/03/14 03:33:08;;;;;;;58.97;28.10;;;;;;;-1.37;49.05;99627.19;5069804;28;20540;-65
2022/03/14 03:35:34;;;;;;;57.17;27.48;;;;;;;-1.38;49.03;99630.06;5070447;28;20524;-65
2022/03/14 03:38:01;;;;;;;59.13;26.52;;;;;;;-1.38;49.26;99628.22;5070570;28;20036;-64
2022/03/14 03:40:26;;;;;;;54.53;27.75;;;;;;;-1.39;49.57;99639.16;5070633;28;20037;-64
2022/03/14 03:42:52;;;;;;;53.60;26.42;;;;;;;-1.42;49.37;99631.47;5070369;28;20170;-65
2022/03/14 03:45:18;;;;;;;60.33;28.48;;;;;;;-1.43;49.47;99637.91;5069857;28;20032;-65
2022/03/14 03:47:44;;;;;;;58.00;27.75;;;;;;;-1.43;49.26;99637.91;5070457;28;20024;-65
2022/03/14 03:50:10;;;;;;;52.92;26.20;;;;;;;-1.44;49.62;99633.53;5070471;28;20490;-65
2022/03/14 03:52:36;;;;;;;53.75;25.92;;;;;;;-1.48;49.59;99626.88;5070059;28;20150;-65
2022/03/14 03:55:01;;;;;;;55.20;27.38;;;;;;;-1.53;49.25;99630.94;5069727;28;20136;-65
2022/03/14 03:57:26;;;;;;;57.53;28.35;;;;;;;-1.55;49.58;99642.91;5070265;28;20024;-65
2022/03/14 03:59:52;;;;;;;57.60;27.33;;;;;;;-1.58;49.67;99640.59;5070364;28;20057;-64
2022/03/14 04:02:20;;;;;;;60.55;27.55;;;;;;;-1.61;49.72;99649.88;5072235;28;20020;-64
2022/03/14 04:04:47;;;;;;;60.85;30.25;;;;;;;-1.61;50.19;99643.66;5073824;28;20380;-65
2022/03/14 04:07:18;;;;;;;62.55;29.88;;;;;;;-1.60;50.09;99643.47;5073521;28;20039;-65
2022/03/14 04:09:44;;;;;;;63.20;28.98;;;;;;;-1.60;50.16;99642.63;5073623;28;20044;-65
2022/03/14 04:12:10;;;;;;;63.63;28.48;;;;;;;-1.60;50.49;99656.09;5073528;28;20032;-65
2022/03/14 04:14:35;;;;;;;62.05;29.33;;;;;;;-1.60;50.64;99654.25;5073474;28;20030;-65
2022/03/14 04:17:01;;;;;;;67.10;29.98;;;;;;;-1.64;50.31;99652.94;5072731;28;20020;-64
2022/03/14 04:19:29;;;;;;;64.78;29.17;;;;;;;-1.67;50.47;99647.94;5072797;28;20468;-65
2022/03/14 04:21:54;;;;;;;73.32;31.75;;;;;;;-1.70;50.59;99649.16;5072427;28;20048;-64
2022/03/14 04:24:20;;;;;;;78.47;33.00;;;;;;;-1.72;50.56;99651.19;5072619;28;20132;-65
2022/03/14 04:26:46;;;;;;;72.00;30.33;;;;;;;-1.74;50.64;99653.25;5072969;28;20423;-65
2022/03/14 04:29:12;;;;;;;87.57;34.67;;;;;;;-1.79;50.59;99642.19;5073364;28;20422;-65
2022/03/14 04:31:37;;;;;;;90.72;33.85;;;;;;;-1.82;50.94;99650.63;5072901;28;20032;-65
2022/03/14 04:34:03;;;;;;;88.20;34.53;;;;;;;-1.84;50.99;99644.59;5073046;28;20016;-65
2022/03/14 04:36:28;;;;;;;86.03;35.30;;;;;;;-1.86;51.06;99652.88;5072997;28;20102;-65
2022/03/14 04:38:54;;;;;;;90.80;35.40;;;;;;;-1.85;51.18;99653.69;5072955;28;20028;-65
2022/03/14 04:41:20;;;;;;;85.47;35.25;;;;;;;-1.85;51.00;99651.84;5073043;28;20041;-65
2022/03/14 04:43:45;;;;;;;84.32;34.25;;;;;;;-1.86;51.12;99652.03;5072900;28;20045;-65
2022/03/14 04:46:10;;;;;;;77.15;33.15;;;;;;;-1.93;51.18;99651.94;5072824;28;20020;-66
2022/03/14 04:48:36;;;;;;;80.07;35.05;;;;;;;-1.96;51.15;99645.06;5073124;28;20039;-65
2022/03/14 04:51:01;;;;;;;78.25;34.00;;;;;;;-1.98;51.44;99643.59;5073010;28;20029;-65
2022/03/14 04:53:26;;;;;;;76.07;31.58;;;;;;;-2.02;51.39;99647.66;5072749;28;20055;-65
2022/03/14 04:55:52;;;;;;;73.85;32.58;;;;;;;-2.02;51.44;99650.34;5072407;28;20384;-65
2022/03/14 04:58:17;;;;;;;72.13;32.78;;;;;;;-2.03;51.68;99649.50;5072928;28;20025;-66
2022/03/14 05:00:43;;;;;;;72.07;31.67;;;;;;;-2.09;51.63;99655.66;5073092;28;20100;-65
2022/03/14 05:03:09;;;;;;;70.50;31.35;;;;;;;-2.17;51.40;99661.91;5071147;28;20032;-65
2022/03/14 05:05:35;;;;;;;76.72;32.45;;;;;;;-2.24;51.19;99658.28;5071315;28;20036;-65
2022/03/14 05:08:02;;;;;;;70.95;31.48;;;;;;;-2.28;51.75;99655.16;5072754;28;20055;-64
2022/03/14 05:10:28;;;;;;;69.82;32.65;;;;;;;-2.37;51.67;99660.78;5072347;28;20031;-64
2022/03/14 05:12:54;;;;;;;71.38;32.20;;;;;;;-2.42;51.96;99664.00;5072317;28;20043;-65
2022/03/14 05:15:20;;;;;;;62.25;30.70;;;;;;;-2.41;52.14;99671.03;5072052;28;20036;-65
2022/03/14 05:17:47;;;;;;;61.70;28.98;;;;;;;-2.38;52.47;99662.63;5072304;28;20465;-65
2022/03/14 05:20:13;;;;;;;57.38;27.48;;;;;;;-2.35;52.16;99667.63;5072434;28;20028;-65
2022/03/14 05:22:43;;;;;;;72.82;33.10;;;;;;;-2.34;52.40;99680.06;5072339;28;20029;-65
2022/03/14 05:25:10;;;;;;;62.67;30.67;;;;;;;-2.29;52.75;99680.34;5071151;28;20457;-64
2022/03/14 05:27:37;;;;;;;68.97;33.10;;;;;;;-2.22;52.45;99677.75;5072593;28;20111;-66
2022/03/14 05:30:03;;;;;;;72.22;32.65;;;;;;;-2.15;52.74;99680.56;5072583;28;20112;-65
2022/03/14 05:32:29;;;;;;;72.18;31.20;;;;;;;-2.11;52.52;99682.69;5071869;28;20105;-65
2022/03/14 05:34:54;;;;;;;70.82;33.60;;;;;;;-2.05;52.28;99682.97;5071747;28;20396;-64
2022/03/14 05:37:19;;;;;;;70.80;35.80;;;;;;;-1.96;52.65;99687.25;5070698;28;20037;-64
2022/03/14 05:39:45;;;;;;;79.15;39.40;;;;;;;-1.91;52.83;99684.84;5072318;28;20071;-65
2022/03/14 05:42:11;;;;;;;105.38;57.72;;;;;;;-1.85;52.74;99694.03;5071816;28;20031;-65
2022/03/14 05:44:36;;;;;;;104.13;57.30;;;;;;;-1.79;52.80;99687.91;5072045;28;20107;-65
2022/03/14 05:47:02;;;;;;;107.10;56.50;;;;;;;-1.71;52.74;99695.06;5071786;28;20043;-65
2022/03/14 05:49:28;;;;;;;152.60;75.57;;;;;;;-1.65;52.56;99697.84;5072202;28;20480;-65
2022/03/14 05:51:53;;;;;;;173.48;77.13;;;;;;;-1.59;52.74;99698.97;5071758;28;20025;-65
2022/03/14 05:54:19;;;;;;;161.23;71.25;;;;;;;-1.54;52.91;99691.16;5071420;28;20173;-65
2022/03/14 05:56:46;;;;;;;128.27;55.78;;;;;;;-1.48;52.65;99697.66;5071155;28;20032;-66
2022/03/14 05:59:11;;;;;;;126.80;54.13;;;;;;;-1.42;52.86;99698.75;5072322;28;20028;-65
2022/03/14 06:01:39;;;;;;;109.25;49.95;;;;;;;-1.34;52.60;99698.66;5071565;28;20028;-65
2022/03/14 06:04:04;;;;;;;109.78;48.13;;;;;;;-1.28;52.78;99707.84;5071740;28;20033;-65
2022/03/14 06:06:30;;;;;;;101.30;47.35;;;;;;;-1.22;53.09;99699.00;5070884;28;20104;-65
2022/03/14 06:08:55;;;;;;;98.75;44.83;;;;;;;-1.14;52.93;99706.97;5071518;28;20028;-65
2022/03/14 06:11:21;;;;;;;85.97;40.17;;;;;;;-1.08;52.64;99706.22;5071254;28;20492;-65
2022/03/14 06:13:47;;;;;;;91.97;40.58;;;;;;;-1.01;52.48;99708.97;5071558;28;20020;-66
2022/03/14 06:16:13;;;;;;;71.43;33.85;;;;;;;-0.95;52.88;99702.84;5069827;28;20099;-65
2022/03/14 06:18:39;;;;;;;73.18;35.85;;;;;;;-0.87;52.97;99715.38;5071379;28;20028;-64
2022/03/14 06:21:04;;;;;;;78.50;36.83;;;;;;;-0.81;52.61;99703.00;5071711;28;20028;-65
2022/03/14 06:23:30;;;;;;;71.53;34.42;;;;;;;-0.73;52.71;99707.41;5071164;28;20060;-66
2022/03/14 06:25:55;;;;;;;72.22;33.97;;;;;;;-0.68;52.67;99710.38;5070412;28;20107;-65
2022/03/14 06:28:22;;;;;;;73.63;34.60;;;;;;;-0.59;52.65;99714.63;5071200;28;20056;-65
2022/03/14 06:30:48;;;;;;;80.85;37.00;;;;;;;-0.50;52.54;99715.31;5070830;28;20070;-65
2022/03/14 06:33:13;;;;;;;68.68;34.28;;;;;;;-0.38;52.61;99715.63;5071294;28;20606;-65
2022/03/14 06:35:40;;;;;;;70.82;34.65;;;;;;;-0.32;52.53;99710.31;5070676;28;20037;-65
2022/03/14 06:38:06;;;;;;;77.25;34.63;;;;;;;-0.24;52.49;99711.22;5070601;28;20139;-65
2022/03/14 06:40:32;;;;;;;80.65;37.38;;;;;;;-0.19;52.47;99712.28;5071047;28;20028;-65
2022/03/14 06:42:59;;;;;;;78.05;36.25;;;;;;;-0.09;52.19;99717.31;5070208;28;20115;-65
2022/03/14 06:45:25;;;;;;;75.13;33.33;;;;;;;0.00;52.62;99726.13;5070270;28;20480;-65
2022/03/14 06:47:54;;;;;;;64.75;33.22;;;;;;;0.06;52.57;99717.22;5070581;28;20039;-65
2022/03/14 06:50:21;;;;;;;160.27;77.85;;;;;;;0.12;52.61;99732.63;5070917;28;20060;-65
2022/03/14 06:52:47;;;;;;;126.55;67.70;;;;;;;0.18;53.09;99733.72;5070545;28;20539;-65
2022/03/14 06:55:13;;;;;;;87.40;45.58;;;;;;;0.26;52.80;99730.03;5070811;28;20052;-66
2022/03/14 06:57:39;;;;;;;74.07;37.83;;;;;;;0.34;52.67;99732.59;5070419;28;20025;-65
2022/03/14 07:00:10;;;;;;;72.88;34.50;;;;;;;0.40;52.55;99729.09;5071400;28;20483;-65
2022/03/14 07:02:38;;;;;;;74.28;33.60;;;;;;;0.50;52.20;99731.44;5070777;28;20056;-66
2022/03/14 07:05:04;;;;;;;72.15;33.15;;;;;;;0.63;52.21;99737.94;5071069;28;20060;-65
2022/03/14 07:07:29;;;;;;;71.65;32.47;;;;;;;0.75;52.31;99739.03;5070397;28;20068;-65
2022/03/14 07:09:55;;;;;;;68.60;32.03;;;;;;;0.87;52.28;99742.84;5070525;28;20078;-65
2022/03/14 07:12:21;;;;;;;73.80;34.42;;;;;;;0.97;52.28;99736.25;5070605;28;20058;-65
2022/03/14 07:14:46;;;;;;;73.30;34.15;;;;;;;1.07;52.05;99742.06;5069502;28;20036;-63
2022/03/14 07:17:12;;;;;;;65.20;32.70;;;;;;;1.19;51.98;99750.47;5070809;28;20059;-63
2022/03/14 07:19:42;;;;;;;72.90;33.30;;;;;;;1.29;52.09;99745.47;5070950;28;20380;-65
2022/03/14 07:22:08;;;;;;;65.80;30.63;;;;;;;1.42;52.00;99749.25;5068781;28;20433;-64
2022/03/14 07:24:34;;;;;;;60.97;30.50;;;;;;;1.56;51.72;99753.66;5070530;28;20025;-65
2022/03/14 07:26:59;;;;;;;64.95;30.83;;;;;;;1.72;51.68;99760.56;5069681;28;20459;-65
2022/03/14 07:29:24;;;;;;;72.15;32.55;;;;;;;1.90;51.08;99764.50;5070130;28;20093;-65
2022/03/14 07:31:50;;;;;;;69.60;31.17;;;;;;;2.08;51.49;99763.88;5070491;28;20373;-65
2022/03/14 07:34:15;;;;;;;67.78;29.88;;;;;;;2.25;50.53;99756.19;5069340;28;20169;-65
2022/03/14 07:36:42;;;;;;;61.95;28.40;;;;;;;2.38;50.74;99752.66;5071661;28;20052;-65
2022/03/14 07:39:08;;;;;;;58.80;28.20;;;;;;;2.54;49.92;99762.19;5070958;28;20464;-65
2022/03/14 07:41:33;;;;;;;53.30;25.77;;;;;;;2.71;49.29;99759.88;5072372;28;20036;-66
2022/03/14 07:44:00;;;;;;;58.10;27.80;;;;;;;2.86;49.27;99759.63;5071681;28;20424;-65
2022/03/14 07:46:26;;;;;;;51.85;25.35;;;;;;;3.05;49.06;99762.47;5066327;28;20028;-64
2022/03/14 07:48:52;;;;;;;54.75;26.38;;;;;;;3.22;48.76;99757.41;5060291;28;20024;-64
2022/03/14 07:51:17;;;;;;;58.28;29.70;;;;;;;3.41;48.67;99758.34;5070275;28;20039;-65
2022/03/14 07:53:43;;;;;;;60.53;29.17;;;;;;;3.60;47.77;99758.44;5072332;28;20058;-65
2022/03/14 07:56:11;;;;;;;59.95;30.48;;;;;;;3.76;47.63;99757.06;5072955;28;20028;-66
2022/03/14 07:58:36;;;;;;;69.38;32.70;;;;;;;3.91;47.77;99749.47;5072259;28;20028;-64
2022/03/14 08:01:02;;;;;;;33.33;16.00;;;;;;;4.08;45.84;99749.75;5072411;28;20029;-66
2022/03/14 08:03:27;;;;;;;28.95;13.88;;;;;;;4.29;45.69;99748.50;5071691;28;20016;-65
2022/03/14 08:05:58;;;;;;;26.15;13.10;;;;;;;4.45;44.23;99749.81;5072713;28;20052;-65
2022/03/14 08:08:24;;;;;;;24.05;11.90;;;;;;;4.61;42.85;99758.47;5063107;28;20406;-65
2022/03/14 08:10:50;;;;;;;25.40;13.32;;;;;;;4.77;41.99;99762.47;5071884;28;20048;-65
2022/03/14 08:13:15;;;;;;;23.75;12.55;;;;;;;4.90;40.33;99756.06;5071433;28;20286;-64
2022/03/14 08:15:41;;;;;;;25.60;13.05;;;;;;;5.00;41.44;99755.50;5070882;28;20044;-64
2022/03/14 08:18:09;;;;;;;24.38;13.63;;;;;;;5.12;40.22;99753.69;5071343;28;20469;-63
2022/03/14 08:20:35;;;;;;;30.88;14.43;;;;;;;5.22;40.71;99754.00;5072055;28;20108;-65
2022/03/14 08:23:02;;;;;;;30.08;15.52;;;;;;;5.33;40.21;99755.09;5072752;28;20068;-64
2022/03/14 08:25:29;;;;;;;28.50;14.45;;;;;;;5.43;39.68;99759.97;5072150;28;20082;-65
2022/03/14 08:27:55;;;;;;;29.02;15.40;;;;;;;5.51;39.63;99750.66;5072380;28;20024;-63
2022/03/14 08:30:21;;;;;;;30.00;15.85;;;;;;;5.60;39.72;99754.72;5072888;28;20054;-63
2022/03/14 08:32:47;;;;;;;30.20;16.27;;;;;;;5.69;38.89;99757.97;5072560;28;20032;-63
2022/03/14 08:35:14;;;;;;;28.23;15.88;;;;;;;5.77;37.64;99756.78;5071240;28;20099;-63
2022/03/14 08:37:44;;;;;;;26.38;14.25;;;;;;;5.87;36.74;99762.50;5071684;28;20071;-63
2022/03/14 08:40:12;;;;;;;26.73;13.20;;;;;;;5.95;35.52;99764.88;5071863;28;20066;-64
2022/03/14 08:42:38;;;;;;;27.25;14.60;;;;;;;6.02;36.92;99767.53;5071514;28;20365;-64
2022/03/14 08:45:05;;;;;;;36.70;16.08;;;;;;;6.11;36.09;99759.84;5072206;28;20059;-64
2022/03/14 08:47:32;;;;;;;28.08;15.15;;;;;;;6.20;35.85;99757.59;5070811;28;20560;-63
2022/03/14 08:49:58;;;;;;;32.70;14.88;;;;;;;6.31;36.35;99761.44;5072110;28;20024;-64
2022/03/14 08:52:23;;;;;;;30.35;15.50;;;;;;;6.39;36.42;99761.91;5071925;28;20032;-63
2022/03/14 08:54:49;;;;;;;30.38;15.10;;;;;;;6.49;36.41;99766.75;5071476;28;20453;-64
2022/03/14 08:57:16;;;;;;;24.77;13.73;;;;;;;6.59;36.38;99760.69;5072009;28;20040;-64
2022/03/14 08:59:44;;;;;;;31.55;15.60;;;;;;;6.69;35.63;99765.56;5072349;28;20025;-64
2022/03/14 09:02:10;;;;;;;27.05;13.73;;;;;;;6.78;35.36;99763.31;5071916;28;20067;-64
2022/03/14 09:04:36;;;;;;;27.17;14.48;;;;;;;6.86;34.29;99765.66;5072083;28;20056;-64
2022/03/14 09:07:02;;;;;;;38.47;17.08;;;;;;;6.97;34.75;99761.25;5071923;28;20028;-63
2022/03/14 09:09:28;;;;;;;26.70;13.40;;;;;;;7.08;34.89;99756.84;5071532;28;20120;-64
2022/03/14 09:11:53;;;;;;;30.63;13.05;;;;;;;7.22;35.15;99763.69;5071466;28;20035;-64
2022/03/14 09:14:20;;;;;;;23.63;11.98;;;;;;;7.34;34.54;99769.09;5071737;28;20036;-64
2022/03/14 09:16:47;;;;;;;17.13;9.38;;;;;;;7.45;34.52;99764.66;5071661;28;20025;-64
2022/03/14 09:19:13;;;;;;;21.25;11.23;;;;;;;7.57;33.58;99764.63;5071398;28;20500;-64
2022/03/14 09:21:38;;;;;;;28.35;12.70;;;;;;;7.68;33.25;99773.84;5071341;28;20060;-63
2022/03/14 09:24:04;;;;;;;28.35;13.25;;;;;;;7.74;33.05;99773.69;5071295;28;20393;-65
2022/03/14 09:26:32;;;;;;;24.58;13.05;;;;;;;7.78;32.58;99774.00;5071608;28;20028;-64
2022/03/14 09:28:59;;;;;;;21.42;10.80;;;;;;;7.87;33.04;99777.19;5069916;28;20039;-64
2022/03/14 09:31:26;;;;;;;26.30;11.90;;;;;;;7.96;32.60;99772.16;5071692;28;20024;-64
2022/03/14 09:33:51;;;;;;;30.90;11.48;;;;;;;8.04;32.77;99777.22;5071435;28;20112;-64
2022/03/14 09:36:17;;;;;;;20.67;11.23;;;;;;;8.14;33.12;99774.66;5063821;28;20119;-63
2022/03/14 09:38:43;;;;;;;21.45;11.20;;;;;;;8.26;32.52;99771.84;5071225;28;20361;-64
2022/03/14 09:41:09;;;;;;;23.90;12.88;;;;;;;8.34;30.72;99776.91;5070545;28;20025;-63
2022/03/14 09:43:40;;;;;;;18.75;10.77;;;;;;;8.38;29.85;99774.47;5071157;28;20043;-63
2022/03/14 09:46:07;;;;;;;23.92;12.57;;;;;;;8.40;31.00;99771.50;5070970;28;20481;-64
2022/03/14 09:48:36;;;;;;;24.45;12.98;;;;;;;8.44;30.28;99768.03;5069404;28;20028;-64
2022/03/14 09:51:03;;;;;;;20.50;11.60;;;;;;;8.55;30.33;99774.50;5060446;28;20036;-64
2022/03/14 09:53:29;;;;;;;27.30;14.57;;;;;;;8.60;29.58;99774.59;5070363;28;20071;-67
2022/03/14 09:55:56;;;;;;;21.77;11.82;;;;;;;8.68;29.81;99767.84;5070422;28;20068;-65
2022/03/14 09:58:22;;;;;;;22.85;11.80;;;;;;;8.75;28.86;99775.91;5064119;28;20078;-64
2022/03/14 10:00:49;;;;;;;22.80;13.38;;;;;;;8.76;28.42;99772.06;5065726;28;20024;-64
2022/03/14 10:03:16;;;;;;;24.35;12.68;;;;;;;8.78;28.97;99772.63;5064310;28;20028;-64
2022/03/14 10:05:42;;;;;;;23.83;13.23;;;;;;;8.77;29.90;99762.75;5068326;28;20075;-65
2022/03/14 10:08:08;;;;;;;20.80;11.70;;;;;;;8.83;29.42;99764.50;5067698;28;20046;-63
2022/03/14 10:10:37;;;;;;;24.80;13.25;;;;;;;8.89;29.33;99759.94;5068670;28;20016;-63
2022/03/14 10:13:06;;;;;;;20.90;12.63;;;;;;;8.94;29.19;99760.00;5066930;28;20040;-63
2022/03/14 10:15:36;;;;;;;21.88;12.45;;;;;;;9.01;28.24;99759.81;5068845;28;20119;-64
2022/03/14 10:18:15;;;;;;;27.45;14.13;;;;;;;9.06;28.68;99763.44;5068619;28;20024;-64
2022/03/14 10:20:58;;;;;;;23.17;12.57;;;;;;;9.17;27.93;99756.16;5067675;28;20120;-64
2022/03/14 10:23:41;;;;;;;21.40;11.88;;;;;;;9.26;29.22;99753.00;5064901;28;20480;-64
2022/03/14 10:26:10;;;;;;;24.65;12.65;;;;;;;9.37;29.42;99757.50;5065134;28;20364;-63
2022/03/14 10:28:37;;;;;;;24.23;12.32;;;;;;;9.46;28.90;99750.50;5067307;28;20039;-63
2022/03/14 10:31:04;;;;;;;28.20;14.55;;;;;;;9.60;29.83;99753.66;5066853;28;20078;-64
2022/03/14 10:33:33;;;;;;;23.73;13.48;;;;;;;9.83;29.86;99754.41;5063390;28;20103;-64
2022/03/14 10:36:00;;;;;;;22.33;12.87;;;;;;;10.08;29.98;99747.53;5066642;28;20038;-63
2022/03/14 10:38:26;;;;;;;27.35;14.23;;;;;;;10.31;30.62;99746.34;5074408;28;20368;-64
2022/03/14 10:40:53;;;;;;;21.40;12.15;;;;;;;10.43;29.87;99744.25;5069880;28;20113;-64
2022/03/14 10:43:33;;;;;;;22.58;13.25;;;;;;;10.51;29.45;99747.59;5067398;28;20032;-62
2022/03/14 10:46:00;;;;;;;18.38;10.80;;;;;;;10.50;28.01;99744.03;5066910;28;20277;-60
2022/03/14 10:48:43;;;;;;;19.67;12.13;;;;;;;10.50;29.21;99741.28;5068991;28;20681;-61
2022/03/14 10:51:10;;;;;;;22.65;12.45;;;;;;;10.49;27.82;99734.16;5067517;28;20406;-61
2022/03/14 10:53:43;;;;;;;23.17;13.38;;;;;;;10.47;27.60;99735.50;5065648;28;20070;-61
2022/03/14 10:56:09;;;;;;;21.25;11.77;;;;;;;10.47;27.14;99721.78;5069021;28;20040;-60
2022/03/14 10:58:35;;;;;;;20.10;10.93;;;;;;;10.53;27.32;99718.81;5069766;28;20484;-61
2022/03/14 11:01:06;;;;;;;19.73;10.88;;;;;;;10.61;28.09;99722.13;5069809;28;20032;-61
2022/03/14 11:03:33;;;;;;;23.55;13.45;;;;;;;10.71;27.55;99709.31;5069874;28;20032;-60
2022/03/14 11:06:04;;;;;;;23.83;15.18;;;;;;;10.93;28.39;99715.75;5068123;28;20419;-62
2022/03/14 11:08:40;;;;;;;24.05;12.73;;;;;;;11.05;27.40;99713.56;5069947;28;20021;-60
2022/03/14 11:11:08;;;;;;;17.80;9.15;;;;;;;11.09;27.19;99713.88;5071964;28;20029;-61
2022/03/14 11:13:48;;;;;;;22.13;11.05;;;;;;;11.11;27.69;99709.75;5068639;28;20025;-60
2022/03/14 11:16:29;;;;;;;20.33;11.25;;;;;;;11.25;26.61;99714.75;5070085;28;20032;-61